createdAt,value
2022-09-05T00:02:11.183Z,81.97
2022-09-05T00:04:43.886Z,93.70
2022-09-05T00:07:43.318Z,87.43
2022-09-05T00:10:08.107Z,76.63
2022-09-05T00:12:37.765Z,81.90
2022-09-05T00:15:18.970Z,80.20
2022-09-05T00:21:21.408Z,82.90
2022-09-05T00:24:19.621Z,81.47
2022-09-05T00:24:30.626Z,79.47
2022-09-05T00:26:35.790Z,82.93
2022-09-05T00:29:11.559Z,75.80
2022-09-05T00:31:53.609Z,77.20
2022-09-05T00:34:39.783Z,78.60
2022-09-05T00:37:27.517Z,88.70
2022-09-05T01:25:44.099Z,82.67
2022-09-05T01:29:15.427Z,79.20
2022-09-05T01:31:16.411Z,83.00
2022-09-05T01:33:49.071Z,75.03
2022-09-05T01:36:23.121Z,75.87
2022-09-05T01:40:10.431Z,74.83
2022-09-05T01:41:46.163Z,77.40
2022-09-05T01:44:21.523Z,80.67
2022-09-05T01:46:56.520Z,75.57
2022-09-05T01:49:36.860Z,76.07
2022-09-05T01:52:24.492Z,77.93
2022-09-05T01:54:58.807Z,76.87
2022-09-05T01:57:33.819Z,76.20
2022-09-05T02:00:07.573Z,77.40
2022-09-05T02:02:48.849Z,77.57
2022-09-05T02:05:48.163Z,84.33
2022-09-05T02:08:30.105Z,83.73
2022-09-05T02:11:06.436Z,83.20
2022-09-05T02:14:01.634Z,78.43
2022-09-05T02:16:43.830Z,77.17
2022-09-05T02:19:16.851Z,82.90
2022-09-05T02:21:56.542Z,78.20
2022-09-05T02:24:28.063Z,74.50
2022-09-05T02:27:04.279Z,77.90
2022-09-05T02:29:37.579Z,74.67
2022-09-05T02:32:13.529Z,78.90
2022-09-05T02:34:44.729Z,77.83
2022-09-05T02:37:21.514Z,78.90
2022-09-05T02:45:02.723Z,73.63
2022-09-05T02:45:14.078Z,75.57
2022-09-05T02:45:56.061Z,79.10
2022-09-05T02:48:29.745Z,76.70
2022-09-05T02:57:29.060Z,75.53
2022-09-05T02:57:41.152Z,84.97
2022-09-05T02:57:41.359Z,75.57
2022-09-05T02:59:50.110Z,82.23
2022-09-05T03:02:26.350Z,86.78
2022-09-05T03:05:04.714Z,76.03
2022-09-05T03:07:44.213Z,75.47
2022-09-05T03:10:18.881Z,82.53
2022-09-05T03:13:22.845Z,80.63
2022-09-05T03:16:15.031Z,78.60
2022-09-05T03:18:58.979Z,93.87
2022-09-05T03:21:42.217Z,77.65
2022-09-05T03:24:33.416Z,87.38
2022-09-05T03:27:30.155Z,72.82
2022-09-05T03:30:08.348Z,75.65
2022-09-05T03:32:51.444Z,76.03
2022-09-05T03:35:39.921Z,74.30
2022-09-05T03:38:30.200Z,79.63
2022-09-05T03:41:10.081Z,71.63
2022-09-05T03:43:55.213Z,75.20
2022-09-05T03:46:27.273Z,77.13
2022-09-05T03:49:38.895Z,72.95
2022-09-05T03:57:10.926Z,77.93
2022-09-05T03:57:16.513Z,82.13
2022-09-05T03:58:16.381Z,73.90
2022-09-05T04:00:52.821Z,77.88
2022-09-05T04:08:07.316Z,76.20
2022-09-05T04:08:28.731Z,71.63
2022-09-05T04:09:43.453Z,75.67
2022-09-05T04:12:17.097Z,75.27
2022-09-05T04:14:48.572Z,71.88
2022-09-05T04:17:22.310Z,72.22
2022-09-05T04:19:52.219Z,75.10
2022-09-05T04:22:24.620Z,79.18
2022-09-05T04:24:55.362Z,73.30
2022-09-05T04:27:30.163Z,76.80
2022-09-05T04:30:14.669Z,76.65
2022-09-05T04:32:54.988Z,75.03
2022-09-05T04:35:25.746Z,80.97
2022-09-05T04:37:55.680Z,76.32
2022-09-05T04:40:38.420Z,78.28
2022-09-05T04:43:07.920Z,74.80
2022-09-05T04:45:40.255Z,88.88
2022-09-05T04:48:11.557Z,80.47
2022-09-05T04:50:59.245Z,94.55
2022-09-05T04:53:32.192Z,74.93
2022-09-05T04:56:02.156Z,77.68
2022-09-05T04:58:50.753Z,78.03
2022-09-05T05:06:12.239Z,78.17
2022-09-05T05:06:14.889Z,77.50
2022-09-05T05:07:10.231Z,76.30
2022-09-05T05:09:41.385Z,79.28
2022-09-05T05:17:58.815Z,80.28
2022-09-05T05:18:08.141Z,74.78
2022-09-05T05:18:49.229Z,76.97
2022-09-05T05:20:46.165Z,74.75
2022-09-05T05:23:16.858Z,77.25
2022-09-05T05:25:48.162Z,77.63
2022-09-05T05:28:24.683Z,74.18
2022-09-05T05:30:59.846Z,81.03
2022-09-05T05:33:33.766Z,77.95
2022-09-05T05:36:04.223Z,75.50
2022-09-05T05:38:37.038Z,81.65
2022-09-05T05:41:11.982Z,75.65
2022-09-05T05:43:46.317Z,78.13
2022-09-05T05:46:17.275Z,82.55
2022-09-05T05:48:57.298Z,76.47
2022-09-05T05:52:00.990Z,123.82
2022-09-05T05:54:32.293Z,76.10
2022-09-05T05:57:15.465Z,78.07
2022-09-05T06:00:00.293Z,80.47
2022-09-05T06:03:24.914Z,77.53
2022-09-05T06:06:14.727Z,78.70
2022-09-05T06:11:20.438Z,74.35
2022-09-05T06:14:49.535Z,78.35
2022-09-05T06:15:10.137Z,87.40
2022-09-05T06:18:12.053Z,78.32
2022-09-05T06:22:07.760Z,77.45
2022-09-05T06:23:55.681Z,75.43
2022-09-05T06:26:41.333Z,78.22
2022-09-05T06:29:14.187Z,76.00
2022-09-05T06:31:47.514Z,79.38
2022-09-05T06:34:33.455Z,81.05
2022-09-05T06:37:07.467Z,80.37
2022-09-05T06:45:15.915Z,77.40
2022-09-05T06:48:00.294Z,82.20
2022-09-05T06:50:56.211Z,76.93
2022-09-05T06:53:33.209Z,78.13
2022-09-05T06:56:06.741Z,76.47
2022-09-05T06:58:49.575Z,78.65
2022-09-05T07:01:59.490Z,76.95
2022-09-05T07:05:24.708Z,75.28
2022-09-05T07:07:20.010Z,78.93
2022-09-05T07:09:59.404Z,81.67
2022-09-05T07:12:30.486Z,77.60
2022-09-05T07:15:08.648Z,77.07
2022-09-05T07:18:06.454Z,78.40
2022-09-05T07:21:02.306Z,77.68
2022-09-05T07:24:05.659Z,82.23
2022-09-05T07:26:42.061Z,77.30
2022-09-05T07:29:11.015Z,82.63
2022-09-05T07:31:43.319Z,79.37
2022-09-05T07:34:20.923Z,77.00
2022-09-05T07:37:15.493Z,79.77
2022-09-05T07:39:42.540Z,82.88
2022-09-05T07:42:14.565Z,78.70
2022-09-05T07:44:48.094Z,78.32
2022-09-05T07:47:20.366Z,78.20
2022-09-05T07:50:45.831Z,77.30
2022-09-05T07:56:54.790Z,78.70
2022-09-05T07:57:07.932Z,81.80
2022-09-05T07:58:22.791Z,77.40
2022-09-05T08:00:56.518Z,83.53
2022-09-05T08:03:26.503Z,83.73
2022-09-05T08:05:58.093Z,84.53
2022-09-05T08:08:28.320Z,77.87
2022-09-05T08:11:23.771Z,78.40
2022-09-05T08:13:52.626Z,81.90
2022-09-05T08:16:27.836Z,80.33
2022-09-05T08:18:59.282Z,77.83
2022-09-05T08:21:34.699Z,80.30
2022-09-05T08:24:13.841Z,84.60
2022-09-05T08:26:47.275Z,79.80
2022-09-05T08:29:22.126Z,82.10
2022-09-05T08:31:53.116Z,82.67
2022-09-05T08:34:27.707Z,89.37
2022-09-05T08:37:20.721Z,84.17
2022-09-05T08:40:10.553Z,81.17
2022-09-05T08:43:36.609Z,93.53
2022-09-05T08:46:43.265Z,81.23
2022-09-05T08:48:33.111Z,84.40
2022-09-05T08:51:11.021Z,82.77
2022-09-05T08:53:49.893Z,81.93
2022-09-05T08:56:20.863Z,81.63
2022-09-05T08:59:27.624Z,80.33
2022-09-05T09:02:14.583Z,84.40
2022-09-05T09:05:01.916Z,82.80
2022-09-05T09:07:51.662Z,81.40
2022-09-05T09:10:36.132Z,82.23
2022-09-05T09:13:14.753Z,83.33
2022-09-05T09:15:46.880Z,81.63
2022-09-05T09:18:16.822Z,84.73
2022-09-05T09:20:53.944Z,81.87
2022-09-05T09:23:33.367Z,81.63
2022-09-05T09:26:07.332Z,83.23
2022-09-05T09:28:47.728Z,81.60
2022-09-05T09:31:23.627Z,85.03
2022-09-05T09:33:56.887Z,86.00
2022-09-05T09:36:35.676Z,86.97
2022-09-05T09:39:38.603Z,85.33
2022-09-05T09:42:18.697Z,91.40
2022-09-05T09:45:29.697Z,87.93
2022-09-05T09:48:13.081Z,132.13
2022-09-05T09:50:58.881Z,92.20
2022-09-05T09:53:44.028Z,84.80
2022-09-05T09:56:27.644Z,86.20
2022-09-05T09:59:25.831Z,90.63
2022-09-05T10:02:32.881Z,87.27
2022-09-05T10:10:35.468Z,84.70
2022-09-05T10:10:54.671Z,88.63
2022-09-05T10:14:04.554Z,84.93
2022-09-05T10:16:52.975Z,86.10
2022-09-05T10:22:47.313Z,86.47
2022-09-05T10:25:29.160Z,87.50
2022-09-05T10:28:05.777Z,87.53
2022-09-05T10:33:13.981Z,88.00
2022-09-05T10:35:16.250Z,88.30
2022-09-05T10:36:28.371Z,93.33
2022-09-05T10:39:16.082Z,91.87
2022-09-05T10:41:50.962Z,91.80
2022-09-05T10:44:24.670Z,86.97
2022-09-05T10:46:59.779Z,88.20
2022-09-05T10:49:30.121Z,88.90
2022-09-05T10:52:03.527Z,98.80
2022-09-05T10:55:14.977Z,89.03
2022-09-05T10:57:51.539Z,87.93
2022-09-05T11:02:18.909Z,90.77
2022-09-05T11:03:23.930Z,88.63
2022-09-05T11:05:56.360Z,87.90
2022-09-05T11:08:28.932Z,91.83
2022-09-05T11:11:04.118Z,90.20
2022-09-05T11:13:44.996Z,91.93
2022-09-05T11:16:19.592Z,89.00
2022-09-05T11:18:54.670Z,94.33
2022-09-05T11:21:27.353Z,92.33
2022-09-05T11:23:57.668Z,91.77
2022-09-05T11:26:33.061Z,92.53
2022-09-05T11:29:04.982Z,93.23
2022-09-05T11:32:19.118Z,91.80
2022-09-05T11:39:51.485Z,90.47
2022-09-05T11:39:52.304Z,97.17
2022-09-05T11:41:06.821Z,93.10
2022-09-05T11:43:57.397Z,97.47
2022-09-05T11:46:45.891Z,93.67
2022-09-05T11:49:22.739Z,94.70
2022-09-05T11:52:11.489Z,94.50
2022-09-05T11:55:20.989Z,91.80
2022-09-05T12:00:48.968Z,94.17
2022-09-05T12:04:00.109Z,95.17
2022-09-05T12:06:48.010Z,95.83
2022-09-05T12:09:23.610Z,99.03
2022-09-05T12:11:59.259Z,94.53
2022-09-05T12:14:34.577Z,97.03
2022-09-05T12:17:10.313Z,97.10
2022-09-05T12:19:48.906Z,95.07
2022-09-05T12:22:29.977Z,93.53
2022-09-05T12:25:25.443Z,94.20
2022-09-05T12:29:27.775Z,98.10
2022-09-05T12:32:46.176Z,93.77
2022-09-05T12:36:07.009Z,92.40
2022-09-05T12:40:04.987Z,92.70
2022-09-05T12:41:11.250Z,98.80
2022-09-05T12:47:25.044Z,93.87
2022-09-05T17:29:34.134Z,92.33
2022-09-05T17:31:55.028Z,101.30
2022-09-05T17:34:44.661Z,101.63
2022-09-05T17:37:20.522Z,96.90
2022-09-05T17:39:55.097Z,100.80
2022-09-05T17:42:32.516Z,91.67
2022-09-05T17:45:11.059Z,123.47
2022-09-05T17:55:14.753Z,93.97
2022-09-05T18:00:42.687Z,147.23
2022-09-05T18:01:28.361Z,119.37
2022-09-05T19:19:31.370Z,90.80
2022-09-05T19:22:33.888Z,89.03
2022-09-05T19:24:50.422Z,90.20
2022-09-05T19:30:04.141Z,90.47
2022-09-05T19:36:44.016Z,91.90
2022-09-05T19:36:56.241Z,88.47
2022-09-05T19:37:05.476Z,89.23
2022-09-05T19:41:52.744Z,88.17
2022-09-05T19:47:33.800Z,91.57
2022-09-05T19:47:35.583Z,90.50
2022-09-05T19:47:45.141Z,91.73
2022-09-05T19:50:09.590Z,87.47
2022-09-05T19:52:39.937Z,93.57
2022-09-05T19:55:20.316Z,93.67
2022-09-05T19:57:49.527Z,92.87
2022-09-05T20:00:24.489Z,97.50
2022-09-05T20:02:53.422Z,88.97
2022-09-05T20:05:22.618Z,92.43
2022-09-05T20:07:53.390Z,94.80
2022-09-05T20:10:26.424Z,91.53
2022-09-05T20:12:55.046Z,97.13
2022-09-05T20:15:27.830Z,96.07
2022-09-05T20:18:19.121Z,90.67
2022-09-05T20:20:52.361Z,91.27
2022-09-05T20:23:24.099Z,89.43
2022-09-05T20:25:52.683Z,92.53
2022-09-05T20:28:22.218Z,89.67
2022-09-05T20:30:52.735Z,93.77
2022-09-05T20:33:23.281Z,89.50
2022-09-05T20:41:30.621Z,93.50
2022-09-05T20:43:24.420Z,97.80
2022-09-05T20:43:28.946Z,90.73
2022-09-05T20:44:25.052Z,88.30
2022-09-05T20:49:43.533Z,90.87
2022-09-05T20:54:22.169Z,91.63
2022-09-05T20:54:23.436Z,94.47
2022-09-05T20:55:38.524Z,89.47
2022-09-05T20:58:09.905Z,90.37
2022-09-05T21:00:39.613Z,89.20
2022-09-05T21:03:09.199Z,91.90
2022-09-05T21:05:39.765Z,97.33
2022-09-05T21:08:32.489Z,91.03
2022-09-05T21:11:03.469Z,90.07
2022-09-05T21:13:33.093Z,92.07
2022-09-05T21:16:02.002Z,87.57
2022-09-05T21:18:33.892Z,85.87
2022-09-05T21:21:14.597Z,89.47
2022-09-05T21:24:08.963Z,100.00
2022-09-05T21:26:46.774Z,91.00
2022-09-05T21:29:16.470Z,91.53
2022-09-05T21:31:46.278Z,90.37
2022-09-05T21:34:23.863Z,89.87
2022-09-05T21:37:07.304Z,95.93
2022-09-05T21:39:38.310Z,88.20
2022-09-05T21:42:15.623Z,87.77
2022-09-05T21:47:41.217Z,94.93
2022-09-05T21:47:53.143Z,89.17
2022-09-05T21:50:30.702Z,91.27
2022-09-05T21:53:46.958Z,97.37
2022-09-05T21:59:18.011Z,88.73
2022-09-05T21:59:21.157Z,90.53
2022-09-05T22:01:50.977Z,87.03
2022-09-05T22:04:17.552Z,94.40
2022-09-05T22:06:48.699Z,93.80
2022-09-05T22:09:18.628Z,92.70
2022-09-05T22:11:51.347Z,92.03
2022-09-05T22:14:21.517Z,87.63
2022-09-05T22:16:50.752Z,86.57
2022-09-05T22:19:22.710Z,89.13
2022-09-05T22:21:52.003Z,90.90
2022-09-05T22:24:20.510Z,85.00
2022-09-05T22:27:11.515Z,86.87
2022-09-05T22:29:43.059Z,94.53
2022-09-05T22:32:16.108Z,89.63
2022-09-05T22:34:47.305Z,88.20
2022-09-05T22:37:16.900Z,85.67
2022-09-05T22:39:45.634Z,89.47
2022-09-05T22:42:14.367Z,88.10
2022-09-05T22:44:45.203Z,85.73
2022-09-05T22:47:13.730Z,99.17
2022-09-05T22:49:41.957Z,87.27
2022-09-05T22:52:10.902Z,87.67
2022-09-05T22:54:39.313Z,90.43
2022-09-05T22:57:07.622Z,100.73
2022-09-05T22:59:35.851Z,95.60
2022-09-05T23:02:05.599Z,89.60
2022-09-05T23:04:33.939Z,89.03
2022-09-05T23:07:03.450Z,92.80
2022-09-05T23:09:31.689Z,87.00
2022-09-05T23:11:59.951Z,99.07
2022-09-05T23:14:28.190Z,87.93
